Time;durP1;ratioP1;P1;durP2;ratioP2;P2;SDS_P1;SDS_P2;PMS_P1;PMS_P2;Temp;Humidity;BMP_temperature;BMP_pressure;BME280_temperature;BME280_humidity;BME280_pressure;Samples;Min_cycle;Max_cycle;Signal;HPM_P1;HPM_P2
2022/11/17 00:01:08;;;;;;;4.75;4.38;;;;;;;4.79;100.00;98619.41;10500241;28;20067;-83
2022/11/17 00:06:10;;;;;;;5.40;5.00;;;;;;;4.73;100.00;98603.94;10498591;28;20059;-82
2022/11/17 00:11:11;;;;;;;5.95;5.55;;;;;;;4.64;100.00;98604.22;10500172;28;20045;-83
2022/11/17 00:16:18;;;;;;;6.43;4.82;;;;;;;4.53;100.00;98613.22;10498073;28;20551;-83
2022/11/17 00:21:20;;;;;;;5.20;4.90;;;;;;;4.41;100.00;98603.19;10497708;28;20079;-83
2022/11/17 00:26:30;;;;;;;5.88;5.40;;;;;;;4.57;100.00;98607.94;10497164;28;20418;-83
2022/11/17 00:36:59;;;;;;;5.28;4.88;;;;;;;4.58;100.00;98602.69;10498009;28;20387;-83
2022/11/17 00:42:01;;;;;;;6.38;5.88;;;;;;;4.20;100.00;98598.59;10499600;28;20379;-83
2022/11/17 00:47:02;;;;;;;5.72;5.32;;;;;;;4.25;100.00;98594.13;10509886;28;20079;-83
2022/11/17 00:52:04;;;;;;;5.57;5.07;;;;;;;4.44;100.00;98586.63;10512265;28;20041;-83
2022/11/17 00:57:06;;;;;;;4.95;4.55;;;;;;;4.42;100.00;98586.66;10491965;28;20055;-83
2022/11/17 01:02:07;;;;;;;5.30;4.90;;;;;;;4.42;100.00;98597.06;10515345;28;20071;-83
2022/11/17 01:07:09;;;;;;;4.65;4.35;;;;;;;4.44;100.00;98595.28;10525126;28;20044;-82
2022/11/17 01:12:11;;;;;;;4.45;4.15;;;;;;;4.15;100.00;98584.88;10517490;28;20068;-82
2022/11/17 01:17:12;;;;;;;4.60;4.20;;;;;;;4.15;100.00;98577.09;10537871;28;20045;-82
2022/11/17 01:22:14;;;;;;;4.07;3.78;;;;;;;4.46;100.00;98583.06;10523215;28;20047;-83
2022/11/17 01:27:15;;;;;;;3.85;3.55;;;;;;;4.40;100.00;98582.44;10496876;28;20037;-83
2022/11/17 01:32:17;;;;;;;4.10;3.70;;;;;;;4.42;100.00;98584.06;10513659;28;20387;-82
2022/11/17 01:37:19;;;;;;;3.45;3.15;;;;;;;4.26;100.00;98567.22;10495417;28;20047;-83
2022/11/17 01:42:23;;;;;;;2.90;2.65;;;;;;;4.54;100.00;98568.09;10499125;28;20091;-83
2022/11/17 01:47:30;;;;;;;2.78;2.58;;;;;;;4.39;100.00;98578.97;10493569;28;20506;-82
2022/11/17 01:52:34;;;;;;;2.67;2.47;;;;;;;4.33;100.00;98562.69;10493043;28;20058;-82
2022/11/17 01:57:51;;;;;;;3.00;2.70;;;;;;;4.33;100.00;98567.88;10492105;28;20044;-82
2022/11/17 02:02:53;;;;;;;2.88;2.67;;;;;;;4.37;100.00;98556.50;10512650;28;20097;-82
2022/11/17 02:07:58;;;;;;;2.40;2.20;;;;;;;4.32;100.00;98560.97;10492385;28;20044;-82
2022/11/17 02:13:00;;;;;;;2.05;1.85;;;;;;;4.19;100.00;98557.91;10502630;28;20051;-83
2022/11/17 02:18:02;;;;;;;2.15;1.80;;;;;;;4.23;100.00;98547.34;10504829;28;20131;-83
2022/11/17 02:23:24;;;;;;;2.08;1.98;;;;;;;4.34;100.00;98544.44;10503932;28;20040;-83
2022/11/17 02:28:30;;;;;;;2.08;1.88;;;;;;;4.31;100.00;98539.31;10487136;28;20067;-83
2022/11/17 02:34:14;;;;;;;2.10;1.65;;;;;;;4.21;100.00;98545.72;10487569;28;20151;-82
2022/11/17 02:39:39;;;;;;;2.00;1.73;;;;;;;4.16;100.00;98539.78;10503482;28;20048;-82
2022/11/17 02:44:49;;;;;;;2.17;1.77;;;;;;;4.09;100.00;98539.13;10487047;28;20071;-82
2022/11/17 02:49:59;;;;;;;2.13;1.80;;;;;;;4.07;100.00;98537.44;10503299;28;20094;-82
2022/11/17 02:55:04;;;;;;;1.65;1.55;;;;;;;4.09;100.00;98536.50;10502950;28;20041;-82
2022/11/17 03:00:13;;;;;;;1.75;1.65;;;;;;;4.05;100.00;98546.16;10546741;28;20040;-82
2022/11/17 03:05:53;;;;;;;1.95;1.85;;;;;;;4.11;100.00;98532.09;10507583;28;20071;-82
2022/11/17 03:11:04;;;;;;;2.55;1.77;;;;;;;4.08;100.00;98523.56;10360886;28;20073;-83
2022/11/17 03:16:29;;;;;;;2.05;1.88;;;;;;;4.01;100.00;98525.47;10379451;28;20052;-83
2022/11/17 03:21:40;;;;;;;2.38;1.77;;;;;;;3.86;100.00;98523.34;10396167;28;20049;-79
2022/11/17 03:26:50;;;;;;;2.03;1.83;;;;;;;4.08;100.00;98524.41;10402552;28;20053;-82
2022/11/17 03:31:58;;;;;;;1.88;1.70;;;;;;;4.10;100.00;98521.75;10391703;28;20073;-83
2022/11/17 03:37:04;;;;;;;3.22;2.20;;;;;;;4.21;100.00;98509.31;10368051;28;20065;-83
2022/11/17 03:42:27;;;;;;;2.10;1.92;;;;;;;4.01;100.00;98515.94;10353066;28;20046;-82
2022/11/17 03:47:31;;;;;;;2.30;2.08;;;;;;;4.15;100.00;98522.47;10472010;28;20074;-83
2022/11/17 03:52:35;;;;;;;2.30;2.10;;;;;;;4.18;100.00;98517.19;10495348;28;20036;-83
2022/11/17 03:57:45;;;;;;;2.40;2.20;;;;;;;4.09;100.00;98530.47;10486362;28;20049;-83
2022/11/17 04:02:53;;;;;;;3.55;2.38;;;;;;;4.02;100.00;98507.22;10501758;28;20064;-82
2022/11/17 04:07:55;;;;;;;2.08;1.98;;;;;;;3.86;100.00;98506.00;10499752;28;20076;-83
2022/11/17 04:18:31;;;;;;;2.45;2.25;;;;;;;3.94;100.00;98503.16;10517198;28;20037;-83
2022/11/17 04:23:56;;;;;;;3.28;1.98;;;;;;;4.02;100.00;98493.38;10533489;28;20055;-83
2022/11/17 04:29:54;;;;;;;2.75;2.55;;;;;;;3.80;100.00;98499.19;10544066;28;20029;-82
2022/11/17 04:34:57;;;;;;;2.40;2.20;;;;;;;4.00;100.00;98501.25;10533128;28;20397;-84
2022/11/17 04:40:02;;;;;;;3.00;2.80;;;;;;;3.87;100.00;98496.44;10479091;28;20044;-83
2022/11/17 04:45:06;;;;;;;3.20;2.90;;;;;;;3.99;100.00;98488.28;10498926;28;20425;-82
2022/11/17 04:50:15;;;;;;;2.67;2.47;;;;;;;4.13;100.00;98487.88;10501216;28;20135;-83
2022/11/17 04:55:25;;;;;;;2.83;2.63;;;;;;;3.99;100.00;98483.94;10481742;28;20044;-83
2022/11/17 05:01:12;;;;;;;3.30;3.00;;;;;;;4.00;100.00;98482.19;10504401;28;20068;-83
2022/11/17 05:06:19;;;;;;;3.03;2.83;;;;;;;4.10;100.00;98473.19;10499761;28;20426;-80
2022/11/17 05:17:30;;;;;;;2.83;2.63;;;;;;;4.01;100.00;98474.34;10498642;28;20067;-83
2022/11/17 05:28:08;;;;;;;3.25;2.70;;;;;;;4.08;100.00;98450.75;10521747;28;20162;-82
2022/11/17 05:33:10;;;;;;;3.28;3.08;;;;;;;3.96;100.00;98459.78;10495995;28;20051;-84
2022/11/17 05:38:12;;;;;;;3.45;3.15;;;;;;;3.79;100.00;98463.72;10478650;28;20064;-84
2022/11/17 05:43:14;;;;;;;3.97;3.67;;;;;;;4.00;100.00;98454.44;10494328;28;20040;-82
2022/11/17 05:48:16;;;;;;;3.35;2.97;;;;;;;3.99;100.00;98447.53;10479617;28;20044;-85
2022/11/17 05:53:18;;;;;;;2.88;2.67;;;;;;;4.11;100.00;98446.28;10498960;28;20048;-86
2022/11/17 05:58:28;;;;;;;2.42;2.22;;;;;;;4.22;100.00;98452.03;10497050;28;20136;-85
2022/11/17 06:03:42;;;;;;;2.63;2.42;;;;;;;3.98;100.00;98463.16;10482574;28;20071;-83
2022/11/17 06:08:47;;;;;;;2.80;2.60;;;;;;;4.09;100.00;98460.25;10499910;28;20147;-82
2022/11/17 06:13:55;;;;;;;2.70;2.50;;;;;;;4.19;100.00;98467.72;10482567;28;20387;-82
2022/11/17 06:19:12;;;;;;;2.75;2.55;;;;;;;4.24;100.00;98467.56;10494595;28;20404;-83
2022/11/17 06:24:14;;;;;;;4.03;3.72;;;;;;;4.19;100.00;98457.31;10493854;28;20063;-82
2022/11/17 06:29:16;;;;;;;3.92;2.53;;;;;;;4.19;100.00;98459.91;10494089;28;20134;-83
2022/11/17 06:34:20;;;;;;;2.40;2.03;;;;;;;4.17;100.00;98460.88;10493780;28;20044;-82
2022/11/17 06:39:24;;;;;;;2.30;2.10;;;;;;;4.22;100.00;98443.38;10508648;28;20041;-82
2022/11/17 06:44:25;;;;;;;2.10;1.90;;;;;;;4.16;100.00;98461.75;10474041;28;20063;-84
2022/11/17 06:49:33;;;;;;;2.20;2.00;;;;;;;4.23;100.00;98451.13;10490290;28;20068;-81
2022/11/17 06:54:44;;;;;;;1.98;1.83;;;;;;;4.03;100.00;98445.72;10461733;28;20044;-82
2022/11/17 06:59:46;;;;;;;3.65;2.30;;;;;;;4.13;100.00;98441.06;10492358;28;20048;-79
2022/11/17 07:04:47;;;;;;;2.35;2.00;;;;;;;4.25;100.00;98431.13;10510875;28;20044;-80
2022/11/17 07:09:49;;;;;;;2.47;2.08;;;;;;;4.17;100.00;98427.91;10529899;28;20049;-80
2022/11/17 07:14:51;;;;;;;2.88;2.55;;;;;;;4.19;100.00;98441.72;10526591;28;20439;-82
2022/11/17 07:19:53;;;;;;;2.72;2.30;;;;;;;4.14;100.00;98441.00;10530433;28;20045;-80
2022/11/17 07:24:55;;;;;;;2.05;1.95;;;;;;;4.29;100.00;98437.06;10507450;28;20107;-80
2022/11/17 07:29:56;;;;;;;2.17;1.98;;;;;;;4.40;100.00;98439.34;10491861;28;20049;-81
2022/11/17 07:35:21;;;;;;;2.65;2.45;;;;;;;4.37;100.00;98432.47;10524491;28;20036;-85
2022/11/17 07:40:47;;;;;;;2.90;2.70;;;;;;;4.49;100.00;98426.03;10514739;28;20048;-82
2022/11/17 07:45:53;;;;;;;2.78;2.58;;;;;;;4.53;100.00;98428.47;10494221;28;20620;-83
2022/11/17 07:51:00;;;;;;;2.97;2.72;;;;;;;4.53;100.00;98436.28;10491760;28;20071;-82
2022/11/17 07:56:04;;;;;;;3.08;2.70;;;;;;;4.51;100.00;98438.06;10508507;28;20079;-82
2022/11/17 08:01:14;;;;;;;2.83;2.63;;;;;;;4.76;100.00;98440.72;10508151;28;20098;-81
2022/11/17 08:06:16;;;;;;;3.50;2.75;;;;;;;4.57;100.00;98441.41;10502434;28;20087;-83
2022/11/17 08:11:18;;;;;;;3.17;2.97;;;;;;;4.49;100.00;98431.22;10519610;28;20064;-83
2022/11/17 08:16:20;;;;;;;3.00;2.70;;;;;;;4.71;100.00;98431.38;10498692;28;20052;-81
2022/11/17 08:21:23;;;;;;;2.67;2.47;;;;;;;4.71;100.00;98421.81;10481108;28;20040;-80
2022/11/17 08:26:24;;;;;;;2.90;2.70;;;;;;;4.78;100.00;98428.53;10499010;28;20044;-81
2022/11/17 08:31:26;;;;;;;3.30;3.00;;;;;;;4.79;100.00;98431.97;10515912;28;20413;-81
2022/11/17 08:36:28;;;;;;;4.28;2.53;;;;;;;4.69;100.00;98422.75;10501049;28;20039;-80
2022/11/17 08:41:30;;;;;;;3.10;2.90;;;;;;;4.83;100.00;98419.69;10543765;28;20025;-81
2022/11/17 08:46:33;;;;;;;2.90;2.70;;;;;;;4.90;99.74;98413.34;10551042;28;20063;-80
2022/11/17 08:51:34;;;;;;;3.25;2.95;;;;;;;4.89;100.00;98422.94;10533137;28;20159;-79
2022/11/17 08:56:36;;;;;;;3.40;3.20;;;;;;;4.87;100.00;98429.97;10525349;28;20041;-81
2022/11/17 09:01:39;;;;;;;3.22;2.92;;;;;;;4.98;100.00;98424.38;10506010;28;20064;-81
2022/11/17 09:06:40;;;;;;;3.75;3.25;;;;;;;4.94;100.00;98441.00;10518659;28;20109;-81
2022/11/17 09:11:42;;;;;;;7.88;3.33;;;;;;;5.14;100.00;98453.34;10480779;28;20044;-81
2022/11/17 09:16:44;;;;;;;4.35;3.53;;;;;;;5.24;99.89;98454.72;10511908;28;20119;-81
2022/11/17 09:21:45;;;;;;;2.58;2.38;;;;;;;5.27;100.00;98450.25;10491359;28;20135;-80
2022/11/17 09:26:48;;;;;;;3.88;3.13;;;;;;;5.25;100.00;98436.41;10495223;28;20056;-79
2022/11/17 09:31:50;;;;;;;3.40;2.88;;;;;;;5.27;99.64;98436.38;10512015;28;20499;-80
2022/11/17 09:36:52;;;;;;;5.65;3.30;;;;;;;5.13;100.00;98430.78;10496739;28;20094;-82
2022/11/17 09:41:56;;;;;;;3.30;3.00;;;;;;;5.30;100.00;98438.84;10512795;28;20139;-84
2022/11/17 09:47:19;;;;;;;3.90;3.55;;;;;;;5.27;100.00;98439.81;10494551;28;20052;-83
2022/11/17 09:52:52;;;;;;;3.70;2.88;;;;;;;5.51;100.00;98432.00;10495947;28;20084;-83
2022/11/17 09:57:59;;;;;;;3.80;3.40;;;;;;;5.44;99.61;98428.78;10494284;28;20082;-82
2022/11/17 10:03:20;;;;;;;5.28;3.65;;;;;;;5.49;100.00;98432.09;10493042;28;20139;-82
2022/11/17 10:08:34;;;;;;;3.97;3.65;;;;;;;5.40;100.00;98419.38;10509797;28;20082;-82
2022/11/17 10:13:36;;;;;;;4.47;4.00;;;;;;;5.43;100.00;98415.81;10510759;28;20040;-82
2022/11/17 10:18:38;;;;;;;4.15;3.75;;;;;;;5.53;100.00;98409.34;10508737;28;20079;-82
2022/11/17 10:23:53;;;;;;;3.88;3.50;;;;;;;5.61;100.00;98412.50;10509267;28;20037;-82
2022/11/17 10:29:07;;;;;;;4.05;3.30;;;;;;;5.67;100.00;98412.31;10510393;28;20045;-82
2022/11/17 10:34:11;;;;;;;4.13;3.72;;;;;;;5.54;100.00;98385.84;10500938;28;20037;-81
2022/11/17 10:39:34;;;;;;;4.60;3.47;;;;;;;5.60;100.00;98374.31;10502993;28;20071;-82
2022/11/17 10:44:42;;;;;;;4.18;3.50;;;;;;;5.63;100.00;98366.41;10499101;28;20052;-81
2022/11/17 10:49:43;;;;;;;4.18;3.88;;;;;;;5.70;100.00;98370.44;10501495;28;20041;-82
2022/11/17 10:54:48;;;;;;;6.00;4.00;;;;;;;5.67;100.00;98362.78;10507396;28;20040;-82
2022/11/17 10:59:53;;;;;;;4.25;3.90;;;;;;;5.62;100.00;98361.22;10489837;28;20052;-82
2022/11/17 11:05:12;;;;;;;4.25;3.53;;;;;;;5.79;100.00;98358.81;10523601;28;20561;-81
2022/11/17 11:10:32;;;;;;;4.40;4.10;;;;;;;5.58;100.00;98357.91;10515656;28;20040;-81
2022/11/17 11:15:36;;;;;;;3.83;3.35;;;;;;;5.83;100.00;98369.06;10511279;28;20048;-79
2022/11/17 11:20:48;;;;;;;3.97;3.58;;;;;;;5.75;100.00;98378.09;10515921;28;20045;-81
2022/11/17 11:26:00;;;;;;;4.05;3.75;;;;;;;5.76;100.00;98367.63;10517728;28;20036;-81
2022/11/17 11:31:14;;;;;;;4.30;3.90;;;;;;;5.92;100.00;98360.06;10521123;28;20108;-79
2022/11/17 11:36:26;;;;;;;3.78;3.20;;;;;;;5.86;100.00;98349.00;10553194;28;20085;-79
2022/11/17 11:41:27;;;;;;;3.75;3.33;;;;;;;5.84;100.00;98343.84;10552133;28;20024;-80
2022/11/17 11:46:38;;;;;;;4.65;3.80;;;;;;;6.02;100.00;98332.72;10551846;28;20033;-80
2022/11/17 11:51:42;;;;;;;3.53;3.20;;;;;;;6.10;100.00;98331.53;10517333;28;20049;-82
2022/11/17 11:56:46;;;;;;;4.05;3.38;;;;;;;6.03;100.00;98330.97;10500094;28;20047;-82
2022/11/17 12:01:51;;;;;;;4.55;3.80;;;;;;;6.16;100.00;98333.94;10500073;28;20041;-82
2022/11/17 12:07:06;;;;;;;5.10;4.70;;;;;;;6.00;100.00;98328.47;10500765;28;20044;-82
2022/11/17 12:12:14;;;;;;;4.10;3.55;;;;;;;6.00;100.00;98318.88;10500717;28;20466;-81
2022/11/17 12:17:22;;;;;;;4.53;4.13;;;;;;;5.86;100.00;98315.13;10501511;28;20040;-82
2022/11/17 12:22:33;;;;;;;4.03;3.20;;;;;;;5.94;100.00;98315.69;10498808;28;20406;-82
2022/11/17 12:27:34;;;;;;;4.60;4.20;;;;;;;5.90;100.00;98309.72;10499529;28;20056;-82
2022/11/17 12:32:42;;;;;;;4.03;3.63;;;;;;;5.57;100.00;98306.66;10539117;22;20029;-80
2022/11/17 12:37:44;;;;;;;5.00;4.55;;;;;;;5.65;100.00;98308.97;10495036;28;20025;-78
2022/11/17 12:43:14;;;;;;;5.57;4.50;;;;;;;5.55;100.00;98317.16;10512294;28;20048;-79
2022/11/17 12:48:16;;;;;;;4.97;4.28;;;;;;;5.50;100.00;98305.22;10510659;28;20040;-80
2022/11/17 12:54:09;;;;;;;6.47;4.90;;;;;;;5.57;100.00;98293.63;10511432;28;20054;-79
2022/11/17 12:59:14;;;;;;;6.50;5.63;;;;;;;5.49;100.00;98304.38;10509481;28;20040;-82
2022/11/17 13:04:34;;;;;;;4.85;4.45;;;;;;;5.59;100.00;98291.00;10493257;28;20058;-83
2022/11/17 13:09:36;;;;;;;5.15;4.75;;;;;;;5.55;100.00;98287.66;10509084;28;20028;-82
2022/11/17 13:14:55;;;;;;;11.43;5.05;;;;;;;5.50;100.00;98300.00;10491749;28;20107;-81
2022/11/17 13:20:00;;;;;;;6.03;5.28;;;;;;;5.60;100.00;98292.69;10491669;28;20049;-80
2022/11/17 13:31:36;;;;;;;8.20;5.32;;;;;;;5.60;100.00;98292.69;10509982;28;20029;-78
2022/11/17 13:36:56;;;;;;;5.32;4.93;;;;;;;5.56;100.00;98297.16;10492430;28;20059;-78
2022/11/17 13:42:00;;;;;;;4.88;4.47;;;;;;;5.40;100.00;98285.63;10491828;28;20029;-82
2022/11/17 13:47:25;;;;;;;4.88;4.47;;;;;;;5.48;100.00;98281.81;10469401;28;20116;-81
2022/11/17 13:52:33;;;;;;;5.65;5.18;;;;;;;5.48;100.00;98286.19;10495158;28;20081;-82
2022/11/17 13:58:11;;;;;;;5.03;4.60;;;;;;;5.32;100.00;98280.72;10460639;28;20040;-82
2022/11/17 14:03:42;;;;;;;4.75;4.10;;;;;;;5.52;100.00;98282.53;10448878;28;20041;-82
2022/11/17 14:09:02;;;;;;;5.57;5.07;;;;;;;5.45;100.00;98284.56;10473451;28;20041;-82
2022/11/17 14:14:11;;;;;;;5.93;5.43;;;;;;;5.52;100.00;98291.22;10465282;28;20045;-80
2022/11/17 14:19:13;;;;;;;5.28;4.88;;;;;;;5.53;100.00;98279.03;10492683;28;20503;-79
2022/11/17 14:24:15;;;;;;;4.75;4.35;;;;;;;5.49;100.00;98285.25;10459179;28;20037;-81
2022/11/17 14:29:17;;;;;;;5.88;4.72;;;;;;;5.47;100.00;98280.13;10452046;28;20048;-80
2022/11/17 14:34:20;;;;;;;6.20;5.38;;;;;;;5.27;100.00;98278.31;10450473;28;20041;-82
2022/11/17 14:39:21;;;;;;;5.80;4.28;;;;;;;5.42;100.00;98270.78;10451972;28;20052;-82
2022/11/17 14:44:23;;;;;;;5.25;4.80;;;;;;;5.21;100.00;98264.66;10471653;28;20068;-83
2022/11/17 14:49:25;;;;;;;5.90;5.40;;;;;;;5.29;100.00;98270.41;10469304;28;20044;-80
2022/11/17 14:54:27;;;;;;;5.10;4.63;;;;;;;5.32;100.00;98267.72;10455216;28;20049;-80
2022/11/17 14:59:29;;;;;;;5.43;4.93;;;;;;;5.36;100.00;98277.09;10475516;28;20401;-80
2022/11/17 15:04:31;;;;;;;5.75;5.25;;;;;;;5.29;100.00;98273.03;10454683;28;20049;-81
2022/11/17 15:09:52;;;;;;;5.40;4.95;;;;;;;5.27;100.00;98288.72;10477996;28;20047;-80
2022/11/17 15:14:56;;;;;;;5.30;4.90;;;;;;;5.23;100.00;98281.09;10493867;28;20037;-79
2022/11/17 15:19:57;;;;;;;5.68;5.18;;;;;;;5.04;100.00;98281.75;10458605;28;20048;-81
2022/11/17 15:24:59;;;;;;;5.35;4.95;;;;;;;5.17;100.00;98295.16;10479771;28;20052;-81
2022/11/17 15:30:01;;;;;;;5.25;4.75;;;;;;;5.29;100.00;98292.09;10477031;28;20111;-81
2022/11/17 15:35:03;;;;;;;5.28;4.78;;;;;;;5.23;100.00;98288.91;10475403;28;20041;-80
2022/11/17 15:40:05;;;;;;;5.40;5.00;;;;;;;5.25;100.00;98297.50;10455565;28;20462;-80
2022/11/17 15:45:08;;;;;;;5.85;5.25;;;;;;;5.18;100.00;98291.69;10472654;28;20107;-82
2022/11/17 15:50:10;;;;;;;6.03;5.45;;;;;;;5.32;100.00;98286.78;10454562;28;20045;-81
2022/11/17 15:55:11;;;;;;;7.57;6.13;;;;;;;5.20;100.00;98291.63;10488244;28;20057;-81
2022/11/17 16:00:14;;;;;;;5.95;5.38;;;;;;;5.25;100.00;98280.09;10482040;28;20068;-81
2022/11/17 16:05:15;;;;;;;5.55;5.05;;;;;;;5.12;100.00;98280.63;10482741;28;20041;-81
2022/11/17 16:10:17;;;;;;;6.68;6.15;;;;;;;5.20;100.00;98282.03;10469533;28;20072;-82
2022/11/17 16:15:19;;;;;;;6.65;6.05;;;;;;;5.20;100.00;98282.03;10483880;28;20037;-80
2022/11/17 16:20:23;;;;;;;7.28;6.68;;;;;;;5.16;100.00;98280.47;10465451;28;20094;-80
2022/11/17 16:25:25;;;;;;;7.00;6.40;;;;;;;4.98;100.00;98275.94;10468692;28;20047;-80
2022/11/17 16:30:27;;;;;;;7.47;6.53;;;;;;;5.07;100.00;98280.81;10471479;28;20025;-81
2022/11/17 16:35:37;;;;;;;7.57;6.97;;;;;;;5.19;100.00;98284.72;10476496;28;20068;-79
2022/11/17 16:40:40;;;;;;;7.40;6.80;;;;;;;5.20;100.00;98279.44;10505191;28;20138;-80
2022/11/17 16:45:44;;;;;;;7.55;6.85;;;;;;;5.14;100.00;98278.84;10485492;28;20076;-81
2022/11/17 16:50:46;;;;;;;7.65;7.05;;;;;;;4.99;100.00;98267.22;10483377;28;20117;-81
2022/11/17 16:55:48;;;;;;;8.15;7.45;;;;;;;5.10;100.00;98262.47;10480384;28;20049;-82
2022/11/17 17:00:50;;;;;;;7.53;6.82;;;;;;;5.06;100.00;98266.94;10497242;28;20053;-81
2022/11/17 17:05:52;;;;;;;6.28;5.78;;;;;;;5.12;100.00;98272.81;10494528;28;20076;-81
2022/11/17 17:10:54;;;;;;;7.22;6.60;;;;;;;5.03;100.00;98267.03;10490012;28;20041;-81
2022/11/17 17:16:01;;;;;;;7.47;6.88;;;;;;;5.10;100.00;98265.06;10477812;28;20033;-82
2022/11/17 17:21:04;;;;;;;8.88;8.18;;;;;;;4.96;100.00;98268.19;10446577;28;20052;-81
2022/11/17 17:26:13;;;;;;;7.55;6.95;;;;;;;5.12;100.00;98271.06;10456743;28;20110;-82
2022/11/17 17:31:17;;;;;;;8.18;7.38;;;;;;;5.13;100.00;98266.69;10476323;28;20071;-80
2022/11/17 17:36:24;;;;;;;8.75;8.10;;;;;;;5.09;100.00;98268.59;10440852;28;20037;-81
2022/11/17 17:41:28;;;;;;;9.55;7.75;;;;;;;5.03;100.00;98269.66;10448700;28;20059;-82
2022/11/17 17:46:33;;;;;;;7.18;6.68;;;;;;;5.13;100.00;98269.28;10478397;28;20060;-82
2022/11/17 17:51:38;;;;;;;8.27;7.47;;;;;;;5.17;100.00;98279.53;10458359;28;20071;-81
2022/11/17 17:56:40;;;;;;;7.93;7.32;;;;;;;5.09;100.00;98276.41;10461513;28;20109;-81
2022/11/17 18:01:44;;;;;;;7.53;6.93;;;;;;;5.13;100.00;98271.91;10459896;28;20079;-80
2022/11/17 18:06:49;;;;;;;7.65;7.00;;;;;;;5.09;100.00;98265.09;10444591;28;20043;-82
2022/11/17 18:11:52;;;;;;;7.85;7.20;;;;;;;5.09;100.00;98267.72;10463142;28;20051;-82
2022/11/17 18:16:54;;;;;;;9.07;8.38;;;;;;;5.05;100.00;98273.06;10478716;28;20037;-80
2022/11/17 18:21:56;;;;;;;8.93;8.23;;;;;;;5.11;100.00;98263.31;10461019;28;20098;-81
2022/11/17 18:26:58;;;;;;;8.57;7.85;;;;;;;5.06;100.00;98274.75;10461965;28;20037;-82
2022/11/17 18:31:59;;;;;;;9.23;8.45;;;;;;;4.94;100.00;98259.56;10477714;28;20128;-82
2022/11/17 18:37:01;;;;;;;8.35;7.65;;;;;;;4.86;100.00;98271.19;10509227;22;20489;-80
2022/11/17 18:42:03;;;;;;;9.65;8.85;;;;;;;4.87;100.00;98270.28;10500375;28;20048;-84
2022/11/17 18:47:05;;;;;;;10.80;9.90;;;;;;;4.90;100.00;98262.34;10500935;28;20064;-82
2022/11/17 18:52:08;;;;;;;9.32;8.52;;;;;;;4.79;100.00;98255.81;10483548;28;20444;-83
2022/11/17 18:57:10;;;;;;;10.27;9.48;;;;;;;4.64;100.00;98251.13;10509254;28;20143;-83
2022/11/17 19:02:21;;;;;;;10.45;9.65;;;;;;;4.69;100.00;98257.06;10511876;28;20079;-83
2022/11/17 19:07:31;;;;;;;10.45;9.48;;;;;;;4.73;100.00;98262.97;10533007;28;20044;-83
2022/11/17 19:12:32;;;;;;;10.45;9.75;;;;;;;4.52;100.00;98269.81;10532397;28;20043;-83
2022/11/17 19:17:34;;;;;;;10.55;9.75;;;;;;;4.66;100.00;98269.31;10534030;28;20099;-83
2022/11/17 19:22:36;;;;;;;10.77;9.98;;;;;;;4.76;100.00;98273.28;10530510;28;20040;-83
2022/11/17 19:27:37;;;;;;;11.70;10.80;;;;;;;4.67;100.00;98269.25;10530236;28;20042;-83
2022/11/17 19:32:39;;;;;;;10.65;9.77;;;;;;;4.62;100.00;98278.13;10510709;28;20052;-84
2022/11/17 19:37:41;;;;;;;10.13;9.43;;;;;;;4.65;100.00;98272.81;10514172;28;20429;-84
2022/11/17 19:42:47;;;;;;;11.32;10.43;;;;;;;4.73;100.00;98291.59;10511408;28;20047;-83
2022/11/17 19:47:49;;;;;;;10.30;9.60;;;;;;;4.80;100.00;98287.88;10512534;28;20108;-82
2022/11/17 19:52:50;;;;;;;11.00;10.25;;;;;;;4.72;100.00;98282.94;10526768;28;20104;-83
2022/11/17 19:57:52;;;;;;;10.48;9.68;;;;;;;4.70;100.00;98282.16;10525930;28;20036;-83
2022/11/17 20:02:54;;;;;;;10.05;9.35;;;;;;;4.78;100.00;98274.94;10507251;28;20123;-84
2022/11/17 20:07:56;;;;;;;10.65;9.85;;;;;;;4.62;100.00;98275.53;10506172;28;20114;-83
2022/11/17 20:12:58;;;;;;;10.65;9.85;;;;;;;4.52;100.00;98283.66;10505566;28;20405;-83
2022/11/17 20:18:03;;;;;;;11.65;10.75;;;;;;;4.68;100.00;98290.91;10512517;28;20055;-82
2022/11/17 20:23:07;;;;;;;11.13;10.32;;;;;;;4.61;100.00;98286.84;10513856;28;20070;-83
2022/11/17 20:28:09;;;;;;;11.55;10.65;;;;;;;4.73;100.00;98294.19;10504436;28;20047;-83
2022/11/17 20:33:16;;;;;;;11.65;10.75;;;;;;;4.72;100.00;98282.09;10505628;28;20049;-84
2022/11/17 20:38:18;;;;;;;11.30;10.50;;;;;;;4.51;100.00;98284.56;10504292;28;20102;-84
2022/11/17 20:43:20;;;;;;;12.32;11.43;;;;;;;4.83;100.00;98274.75;10521612;28;20043;-83
2022/11/17 20:48:23;;;;;;;12.15;11.23;;;;;;;4.85;100.00;98274.69;10529485;28;20054;-82
2022/11/17 20:53:27;;;;;;;11.60;10.70;;;;;;;4.89;100.00;98264.13;10537057;28;20040;-83
2022/11/17 20:58:30;;;;;;;12.25;11.32;;;;;;;4.67;100.00;98271.00;10531589;28;20041;-83
2022/11/17 21:03:32;;;;;;;13.60;12.68;;;;;;;4.76;100.00;98270.69;10530560;28;20046;-82
2022/11/17 21:08:37;;;;;;;12.07;11.18;;;;;;;4.98;100.00;98268.13;10509686;28;20127;-82
2022/11/17 21:13:38;;;;;;;13.82;12.60;;;;;;;4.80;100.00;98278.31;10506638;28;20040;-83
2022/11/17 21:18:45;;;;;;;13.82;12.82;;;;;;;5.01;100.00;98291.47;10521113;28;20387;-84
2022/11/17 21:23:50;;;;;;;13.18;12.15;;;;;;;4.96;100.00;98294.25;10518283;28;20048;-82
2022/11/17 21:28:52;;;;;;;16.17;14.98;;;;;;;5.02;100.00;98290.56;10485090;28;20448;-82
2022/11/17 21:33:57;;;;;;;15.63;14.43;;;;;;;4.98;100.00;98289.81;10505007;28;20040;-81
2022/11/17 21:38:59;;;;;;;14.55;13.48;;;;;;;5.13;100.00;98279.72;10548841;28;20024;-81
2022/11/17 21:44:02;;;;;;;14.52;13.43;;;;;;;5.17;100.00;98283.91;10532194;28;20055;-83
2022/11/17 21:49:04;;;;;;;16.13;14.95;;;;;;;5.10;100.00;98272.03;10526061;28;20470;-83
2022/11/17 21:54:07;;;;;;;17.48;16.17;;;;;;;5.09;100.00;98272.91;10521159;28;20041;-83
2022/11/17 21:59:11;;;;;;;17.35;16.05;;;;;;;5.15;100.00;98272.72;10517460;28;20089;-83
2022/11/17 22:04:14;;;;;;;17.30;16.10;;;;;;;5.15;100.00;98280.53;10517900;28;20040;-83
2022/11/17 22:09:17;;;;;;;17.80;16.50;;;;;;;5.06;100.00;98292.97;10510694;28;20040;-82
2022/11/17 22:14:20;;;;;;;17.58;16.25;;;;;;;5.15;100.00;98301.38;10534549;28;20090;-85
2022/11/17 22:19:25;;;;;;;18.45;16.95;;;;;;;5.20;100.00;98305.47;10504327;28;20048;-84
2022/11/17 22:24:27;;;;;;;18.70;17.30;;;;;;;5.18;100.00;98298.63;10503054;28;20048;-85
2022/11/17 22:29:28;;;;;;;18.25;16.85;;;;;;;5.01;100.00;98304.47;10522111;28;20040;-85
2022/11/17 22:34:30;;;;;;;19.05;17.67;;;;;;;5.11;100.00;98303.22;10491560;28;20067;-84
2022/11/17 22:39:32;;;;;;;20.35;18.50;;;;;;;5.23;100.00;98294.13;10507872;28;20048;-84
2022/11/17 22:44:33;;;;;;;19.05;17.75;;;;;;;5.05;100.00;98288.69;10505506;28;20072;-85
2022/11/17 22:49:35;;;;;;;20.10;18.70;;;;;;;5.04;100.00;98301.75;10487756;28;20048;-84
2022/11/17 22:54:37;;;;;;;20.85;19.20;;;;;;;5.15;100.00;98306.56;10505371;28;20040;-83
2022/11/17 22:59:38;;;;;;;20.23;18.73;;;;;;;5.05;100.00;98308.69;10491833;28;20048;-85
2022/11/17 23:04:40;;;;;;;21.33;19.65;;;;;;;5.00;100.00;98302.75;10506793;28;20041;-84
2022/11/17 23:09:46;;;;;;;22.17;20.48;;;;;;;4.96;100.00;98306.41;10530175;28;20098;-84
2022/11/17 23:14:47;;;;;;;21.48;19.88;;;;;;;4.80;100.00;98288.72;10522399;28;20035;-84
2022/11/17 23:19:49;;;;;;;21.50;19.90;;;;;;;5.01;100.00;98300.13;10531433;28;20044;-84
2022/11/17 23:24:51;;;;;;;20.70;19.00;;;;;;;4.79;100.00;98317.44;10529342;28;20052;-84
2022/11/17 23:29:53;;;;;;;22.33;20.25;;;;;;;4.89;100.00;98321.38;10532393;28;20024;-83
2022/11/17 23:34:54;;;;;;;22.23;20.50;;;;;;;5.07;100.00;98309.44;10515869;28;20486;-83
2022/11/17 23:39:56;;;;;;;21.52;19.92;;;;;;;4.91;100.00;98324.78;10520794;28;20044;-83
2022/11/17 23:44:57;;;;;;;24.73;21.55;;;;;;;4.85;100.00;98332.81;10504000;28;20079;-84
2022/11/17 23:49:59;;;;;;;20.95;19.35;;;;;;;4.91;100.00;98337.78;10504573;28;20048;-84
2022/11/17 23:55:01;;;;;;;21.63;20.02;;;;;;;4.92;100.00;98329.09;10505151;28;20037;-83
